sensor_id;sensor_type;location;lat;lon;timestamp;P1;durP1;ratioP1;P2;durP2;ratioP2
76098;SDS011;64828;49.956;8.636;2023-11-21T00:00:10;5.90;;;2.10;;
76098;SDS011;64828;49.956;8.636;2023-11-21T00:00:27;5.68;;;2.13;;
76098;SDS011;64828;49.956;8.636;2023-11-21T00:00:42;4.17;;;1.97;;
76098;SDS011;64828;49.956;8.636;2023-11-21T00:00:58;4.95;;;1.83;;
76098;SDS011;64828;49.956;8.636;2023-11-21T00:01:16;5.38;;;1.92;;
76098;SDS011;64828;49.956;8.636;2023-11-21T00:01:32;4.60;;;2.00;;
76098;SDS011;64828;49.956;8.636;2023-11-21T00:01:47;3.93;;;1.90;;
76098;SDS011;64828;49.956;8.636;2023-11-21T00:02:03;6.28;;;2.10;;
76098;SDS011;64828;49.956;8.636;2023-11-21T00:02:19;6.43;;;1.95;;
76098;SDS011;64828;49.956;8.636;2023-11-21T00:02:35;4.20;;;1.70;;
76098;SDS011;64828;49.956;8.636;2023-11-21T00:02:53;4.60;;;1.80;;
76098;SDS011;64828;49.956;8.636;2023-11-21T00:03:08;3.80;;;1.70;;
76098;SDS011;64828;49.956;8.636;2023-11-21T00:03:26;3.78;;;1.70;;
76098;SDS011;64828;49.956;8.636;2023-11-21T00:03:43;4.60;;;1.73;;
76098;SDS011;64828;49.956;8.636;2023-11-21T00:03:59;4.30;;;1.70;;
76098;SDS011;64828;49.956;8.636;2023-11-21T00:04:16;5.82;;;1.85;;
76098;SDS011;64828;49.956;8.636;2023-11-21T00:04:32;6.23;;;2.00;;
76098;SDS011;64828;49.956;8.636;2023-11-21T00:04:48;6.20;;;2.00;;
76098;SDS011;64828;49.956;8.636;2023-11-21T00:05:04;5.45;;;1.90;;
76098;SDS011;64828;49.956;8.636;2023-11-21T00:05:20;5.03;;;1.80;;
76098;SDS011;64828;49.956;8.636;2023-11-21T00:05:38;4.80;;;1.70;;
76098;SDS011;64828;49.956;8.636;2023-11-21T00:05:56;4.60;;;1.73;;
76098;SDS011;64828;49.956;8.636;2023-11-21T00:06:12;5.17;;;1.80;;
76098;SDS011;64828;49.956;8.636;2023-11-21T00:06:27;5.00;;;1.75;;
76098;SDS011;64828;49.956;8.636;2023-11-21T00:06:45;4.15;;;1.60;;
76098;SDS011;64828;49.956;8.636;2023-11-21T00:07:02;4.25;;;1.98;;
76098;SDS011;64828;49.956;8.636;2023-11-21T00:07:17;3.05;;;1.88;;
76098;SDS011;64828;49.956;8.636;2023-11-21T00:07:33;3.00;;;1.80;;
76098;SDS011;64828;49.956;8.636;2023-11-21T00:07:49;4.43;;;1.85;;
76098;SDS011;64828;49.956;8.636;2023-11-21T00:08:04;6.90;;;2.00;;
76098;SDS011;64828;49.956;8.636;2023-11-21T00:08:20;7.23;;;2.00;;
76098;SDS011;64828;49.956;8.636;2023-11-21T00:08:36;4.47;;;1.70;;
76098;SDS011;64828;49.956;8.636;2023-11-21T00:08:52;5.57;;;1.80;;
76098;SDS011;64828;49.956;8.636;2023-11-21T00:09:07;5.95;;;1.83;;
76098;SDS011;64828;49.956;8.636;2023-11-21T00:09:23;4.90;;;1.90;;
76098;SDS011;64828;49.956;8.636;2023-11-21T00:09:39;5.07;;;1.90;;
76098;SDS011;64828;49.956;8.636;2023-11-21T00:09:55;5.20;;;1.80;;
76098;SDS011;64828;49.956;8.636;2023-11-21T00:10:11;5.03;;;1.70;;
76098;SDS011;64828;49.956;8.636;2023-11-21T00:10:29;4.57;;;1.73;;
76098;SDS011;64828;49.956;8.636;2023-11-21T00:10:44;6.05;;;1.90;;
76098;SDS011;64828;49.956;8.636;2023-11-21T00:11:00;6.97;;;1.93;;
76098;SDS011;64828;49.956;8.636;2023-11-21T00:11:16;4.90;;;1.83;;
76098;SDS011;64828;49.956;8.636;2023-11-21T00:11:31;5.07;;;1.80;;
76098;SDS011;64828;49.956;8.636;2023-11-21T00:11:47;5.50;;;1.90;;
76098;SDS011;64828;49.956;8.636;2023-11-21T00:12:03;4.43;;;2.00;;
76098;SDS011;64828;49.956;8.636;2023-11-21T00:12:19;5.70;;;2.10;;
76098;SDS011;64828;49.956;8.636;2023-11-21T00:12:35;6.78;;;2.15;;
76098;SDS011;64828;49.956;8.636;2023-11-21T00:12:52;7.03;;;2.50;;
76098;SDS011;64828;49.956;8.636;2023-11-21T00:13:09;5.90;;;1.98;;
76098;SDS011;64828;49.956;8.636;2023-11-21T00:13:27;5.43;;;1.90;;
76098;SDS011;64828;49.956;8.636;2023-11-21T00:13:43;5.93;;;2.03;;
76098;SDS011;64828;49.956;8.636;2023-11-21T00:13:58;5.22;;;1.90;;
76098;SDS011;64828;49.956;8.636;2023-11-21T00:14:14;3.53;;;1.60;;
76098;SDS011;64828;49.956;8.636;2023-11-21T00:14:30;4.70;;;1.67;;
76098;SDS011;64828;49.956;8.636;2023-11-21T00:14:45;6.32;;;1.88;;
76098;SDS011;64828;49.956;8.636;2023-11-21T00:15:01;6.60;;;1.90;;
76098;SDS011;64828;49.956;8.636;2023-11-21T00:15:17;5.72;;;1.80;;
76098;SDS011;64828;49.956;8.636;2023-11-21T00:15:33;4.37;;;1.90;;
76098;SDS011;64828;49.956;8.636;2023-11-21T00:15:49;5.07;;;1.88;;
76098;SDS011;64828;49.956;8.636;2023-11-21T00:16:05;5.60;;;1.83;;
76098;SDS011;64828;49.956;8.636;2023-11-21T00:16:22;5.05;;;1.85;;
76098;SDS011;64828;49.956;8.636;2023-11-21T00:16:40;4.28;;;1.90;;
76098;SDS011;64828;49.956;8.636;2023-11-21T00:16:56;4.38;;;1.90;;
76098;SDS011;64828;49.956;8.636;2023-11-21T00:17:12;4.47;;;2.03;;
76098;SDS011;64828;49.956;8.636;2023-11-21T00:17:27;4.40;;;2.00;;
76098;SDS011;64828;49.956;8.636;2023-11-21T00:17:43;5.07;;;2.00;;
76098;SDS011;64828;49.956;8.636;2023-11-21T00:17:59;5.00;;;2.08;;
76098;SDS011;64828;49.956;8.636;2023-11-21T00:18:15;4.03;;;2.08;;
76098;SDS011;64828;49.956;8.636;2023-11-21T00:18:31;4.90;;;2.08;;
76098;SDS011;64828;49.956;8.636;2023-11-21T00:18:47;5.40;;;1.92;;
76098;SDS011;64828;49.956;8.636;2023-11-21T00:19:02;5.23;;;1.90;;
76098;SDS011;64828;49.956;8.636;2023-11-21T00:19:18;5.63;;;2.13;;
76098;SDS011;64828;49.956;8.636;2023-11-21T00:19:34;6.53;;;2.33;;
76098;SDS011;64828;49.956;8.636;2023-11-21T00:19:50;6.43;;;2.15;;
76098;SDS011;64828;49.956;8.636;2023-11-21T00:20:09;4.93;;;1.98;;
76098;SDS011;64828;49.956;8.636;2023-11-21T00:20:27;4.22;;;2.03;;
76098;SDS011;64828;49.956;8.636;2023-11-21T00:20:43;4.57;;;2.03;;
76098;SDS011;64828;49.956;8.636;2023-11-21T00:20:59;5.05;;;1.90;;
76098;SDS011;64828;49.956;8.636;2023-11-21T00:21:14;4.20;;;1.80;;
76098;SDS011;64828;49.956;8.636;2023-11-21T00:21:30;4.72;;;2.13;;
76098;SDS011;64828;49.956;8.636;2023-11-21T00:21:45;5.57;;;2.20;;
76098;SDS011;64828;49.956;8.636;2023-11-21T00:22:01;5.80;;;2.00;;
76098;SDS011;64828;49.956;8.636;2023-11-21T00:22:17;5.18;;;1.95;;
76098;SDS011;64828;49.956;8.636;2023-11-21T00:22:34;5.35;;;1.95;;
76098;SDS011;64828;49.956;8.636;2023-11-21T00:22:50;5.38;;;1.73;;
76098;SDS011;64828;49.956;8.636;2023-11-21T00:23:06;4.88;;;1.80;;
76098;SDS011;64828;49.956;8.636;2023-11-21T00:23:21;4.97;;;1.83;;
76098;SDS011;64828;49.956;8.636;2023-11-21T00:23:37;4.63;;;1.77;;
76098;SDS011;64828;49.956;8.636;2023-11-21T00:23:53;4.63;;;1.90;;
76098;SDS011;64828;49.956;8.636;2023-11-21T00:24:08;5.68;;;2.00;;
76098;SDS011;64828;49.956;8.636;2023-11-21T00:24:24;5.57;;;1.83;;
76098;SDS011;64828;49.956;8.636;2023-11-21T00:24:40;5.82;;;2.00;;
76098;SDS011;64828;49.956;8.636;2023-11-21T00:24:56;5.85;;;2.10;;
76098;SDS011;64828;49.956;8.636;2023-11-21T00:25:12;4.00;;;1.70;;
76098;SDS011;64828;49.956;8.636;2023-11-21T00:25:30;4.40;;;1.90;;
76098;SDS011;64828;49.956;8.636;2023-11-21T00:25:46;6.72;;;2.20;;
76098;SDS011;64828;49.956;8.636;2023-11-21T00:26:01;6.27;;;2.20;;
76098;SDS011;64828;49.956;8.636;2023-11-21T00:26:18;5.50;;;2.20;;
76098;SDS011;64828;49.956;8.636;2023-11-21T00:26:34;5.15;;;2.13;;
76098;SDS011;64828;49.956;8.636;2023-11-21T00:26:52;4.65;;;2.10;;
76098;SDS011;64828;49.956;8.636;2023-11-21T00:27:08;4.55;;;1.98;;
76098;SDS011;64828;49.956;8.636;2023-11-21T00:27:23;5.33;;;1.90;;
76098;SDS011;64828;49.956;8.636;2023-11-21T00:27:39;6.50;;;2.00;;
76098;SDS011;64828;49.956;8.636;2023-11-21T00:27:55;5.47;;;2.00;;
76098;SDS011;64828;49.956;8.636;2023-11-21T00:28:11;5.30;;;1.90;;
76098;SDS011;64828;49.956;8.636;2023-11-21T00:28:26;6.75;;;2.10;;
76098;SDS011;64828;49.956;8.636;2023-11-21T00:28:42;7.20;;;2.20;;
76098;SDS011;64828;49.956;8.636;2023-11-21T00:28:58;5.10;;;1.83;;
76098;SDS011;64828;49.956;8.636;2023-11-21T00:29:13;3.65;;;1.60;;
76098;SDS011;64828;49.956;8.636;2023-11-21T00:29:32;4.80;;;1.83;;
76098;SDS011;64828;49.956;8.636;2023-11-21T00:29:47;5.70;;;1.90;;
76098;SDS011;64828;49.956;8.636;2023-11-21T00:30:03;5.65;;;1.92;;
76098;SDS011;64828;49.956;8.636;2023-11-21T00:30:20;5.18;;;2.00;;
76098;SDS011;64828;49.956;8.636;2023-11-21T00:30:37;4.65;;;1.90;;
76098;SDS011;64828;49.956;8.636;2023-11-21T00:30:53;5.17;;;1.90;;
76098;SDS011;64828;49.956;8.636;2023-11-21T00:31:08;5.75;;;2.00;;
76098;SDS011;64828;49.956;8.636;2023-11-21T00:31:24;5.30;;;2.00;;
76098;SDS011;64828;49.956;8.636;2023-11-21T00:31:40;7.63;;;2.03;;
76098;SDS011;64828;49.956;8.636;2023-11-21T00:31:55;6.85;;;2.15;;
76098;SDS011;64828;49.956;8.636;2023-11-21T00:32:11;4.87;;;2.00;;
76098;SDS011;64828;49.956;8.636;2023-11-21T00:32:26;5.80;;;2.15;;
76098;SDS011;64828;49.956;8.636;2023-11-21T00:32:42;5.57;;;2.37;;
76098;SDS011;64828;49.956;8.636;2023-11-21T00:32:58;5.60;;;2.10;;
76098;SDS011;64828;49.956;8.636;2023-11-21T00:33:13;6.43;;;2.10;;
76098;SDS011;64828;49.956;8.636;2023-11-21T00:33:29;5.23;;;1.90;;
76098;SDS011;64828;49.956;8.636;2023-11-21T00:33:44;4.28;;;1.83;;
76098;SDS011;64828;49.956;8.636;2023-11-21T00:34:00;5.30;;;2.10;;
76098;SDS011;64828;49.956;8.636;2023-11-21T00:34:18;5.43;;;2.00;;
76098;SDS011;64828;49.956;8.636;2023-11-21T00:34:34;6.63;;;2.17;;
76098;SDS011;64828;49.956;8.636;2023-11-21T00:34:50;5.93;;;2.17;;
76098;SDS011;64828;49.956;8.636;2023-11-21T00:35:05;5.32;;;2.10;;
76098;SDS011;64828;49.956;8.636;2023-11-21T00:35:21;5.53;;;2.00;;
76098;SDS011;64828;49.956;8.636;2023-11-21T00:35:37;5.27;;;1.90;;
76098;SDS011;64828;49.956;8.636;2023-11-21T00:35:52;5.95;;;2.30;;
76098;SDS011;64828;49.956;8.636;2023-11-21T00:36:08;6.77;;;2.30;;
76098;SDS011;64828;49.956;8.636;2023-11-21T00:36:24;6.18;;;2.20;;
76098;SDS011;64828;49.956;8.636;2023-11-21T00:36:40;5.75;;;2.13;;
76098;SDS011;64828;49.956;8.636;2023-11-21T00:36:56;5.93;;;2.22;;
76098;SDS011;64828;49.956;8.636;2023-11-21T00:37:12;6.88;;;2.50;;
76098;SDS011;64828;49.956;8.636;2023-11-21T00:37:29;7.05;;;2.30;;
76098;SDS011;64828;49.956;8.636;2023-11-21T00:37:47;5.78;;;2.22;;
76098;SDS011;64828;49.956;8.636;2023-11-21T00:38:04;5.30;;;2.13;;
76098;SDS011;64828;49.956;8.636;2023-11-21T00:38:20;4.18;;;2.00;;
76098;SDS011;64828;49.956;8.636;2023-11-21T00:38:36;4.60;;;2.08;;
76098;SDS011;64828;49.956;8.636;2023-11-21T00:38:54;4.57;;;2.03;;
76098;SDS011;64828;49.956;8.636;2023-11-21T00:39:10;5.25;;;2.10;;
76098;SDS011;64828;49.956;8.636;2023-11-21T00:39:26;6.18;;;2.38;;
76098;SDS011;64828;49.956;8.636;2023-11-21T00:39:42;5.53;;;2.30;;
76098;SDS011;64828;49.956;8.636;2023-11-21T00:39:58;6.32;;;2.25;;
76098;SDS011;64828;49.956;8.636;2023-11-21T00:40:13;7.50;;;2.17;;
76098;SDS011;64828;49.956;8.636;2023-11-21T00:40:30;6.63;;;2.10;;
76098;SDS011;64828;49.956;8.636;2023-11-21T00:40:46;6.25;;;2.20;;
76098;SDS011;64828;49.956;8.636;2023-11-21T00:41:01;6.60;;;2.30;;
76098;SDS011;64828;49.956;8.636;2023-11-21T00:41:17;6.20;;;2.13;;
76098;SDS011;64828;49.956;8.636;2023-11-21T00:41:33;5.75;;;2.00;;
76098;SDS011;64828;49.956;8.636;2023-11-21T00:41:48;5.50;;;2.10;;
76098;SDS011;64828;49.956;8.636;2023-11-21T00:42:04;5.38;;;2.20;;
76098;SDS011;64828;49.956;8.636;2023-11-21T00:42:20;5.68;;;2.17;;
76098;SDS011;64828;49.956;8.636;2023-11-21T00:42:36;6.45;;;2.30;;
76098;SDS011;64828;49.956;8.636;2023-11-21T00:42:52;5.65;;;2.38;;
76098;SDS011;64828;49.956;8.636;2023-11-21T00:43:07;5.72;;;2.35;;
76098;SDS011;64828;49.956;8.636;2023-11-21T00:43:23;5.13;;;2.20;;
76098;SDS011;64828;49.956;8.636;2023-11-21T00:43:39;5.72;;;2.22;;
76098;SDS011;64828;49.956;8.636;2023-11-21T00:43:54;6.13;;;2.22;;
76098;SDS011;64828;49.956;8.636;2023-11-21T00:44:10;6.10;;;2.30;;
76098;SDS011;64828;49.956;8.636;2023-11-21T00:44:26;6.63;;;2.58;;
76098;SDS011;64828;49.956;8.636;2023-11-21T00:44:42;7.38;;;2.50;;
76098;SDS011;64828;49.956;8.636;2023-11-21T00:44:57;6.93;;;2.30;;
76098;SDS011;64828;49.956;8.636;2023-11-21T00:45:13;5.63;;;2.25;;
76098;SDS011;64828;49.956;8.636;2023-11-21T00:45:28;6.97;;;2.40;;
76098;SDS011;64828;49.956;8.636;2023-11-21T00:45:44;7.38;;;2.38;;
76098;SDS011;64828;49.956;8.636;2023-11-21T00:46:03;6.00;;;2.30;;
76098;SDS011;64828;49.956;8.636;2023-11-21T00:46:22;6.43;;;2.40;;
76098;SDS011;64828;49.956;8.636;2023-11-21T00:46:39;6.47;;;2.42;;
76098;SDS011;64828;49.956;8.636;2023-11-21T00:46:54;5.70;;;2.30;;
76098;SDS011;64828;49.956;8.636;2023-11-21T00:47:10;5.72;;;2.30;;
76098;SDS011;64828;49.956;8.636;2023-11-21T00:47:25;7.20;;;2.40;;
76098;SDS011;64828;49.956;8.636;2023-11-21T00:47:42;5.45;;;2.22;;
76098;SDS011;64828;49.956;8.636;2023-11-21T00:47:57;5.07;;;2.30;;
76098;SDS011;64828;49.956;8.636;2023-11-21T00:48:13;7.00;;;2.33;;
76098;SDS011;64828;49.956;8.636;2023-11-21T00:48:29;6.85;;;2.40;;
76098;SDS011;64828;49.956;8.636;2023-11-21T00:48:44;6.40;;;2.50;;
76098;SDS011;64828;49.956;8.636;2023-11-21T00:49:00;5.47;;;2.20;;
76098;SDS011;64828;49.956;8.636;2023-11-21T00:49:15;5.30;;;2.13;;
76098;SDS011;64828;49.956;8.636;2023-11-21T00:49:31;5.95;;;2.20;;
76098;SDS011;64828;49.956;8.636;2023-11-21T00:49:47;5.68;;;2.30;;
76098;SDS011;64828;49.956;8.636;2023-11-21T00:50:04;6.88;;;2.50;;
76098;SDS011;64828;49.956;8.636;2023-11-21T00:50:21;7.80;;;2.40;;
76098;SDS011;64828;49.956;8.636;2023-11-21T00:50:37;6.38;;;2.50;;
76098;SDS011;64828;49.956;8.636;2023-11-21T00:50:52;5.80;;;2.50;;
76098;SDS011;64828;49.956;8.636;2023-11-21T00:51:08;6.38;;;2.35;;
76098;SDS011;64828;49.956;8.636;2023-11-21T00:51:23;7.10;;;2.50;;
76098;SDS011;64828;49.956;8.636;2023-11-21T00:51:39;7.38;;;2.40;;
76098;SDS011;64828;49.956;8.636;2023-11-21T00:51:55;7.17;;;2.40;;
76098;SDS011;64828;49.956;8.636;2023-11-21T00:52:10;6.13;;;2.45;;
76098;SDS011;64828;49.956;8.636;2023-11-21T00:52:26;5.18;;;2.42;;
76098;SDS011;64828;49.956;8.636;2023-11-21T00:52:42;6.38;;;2.60;;
76098;SDS011;64828;49.956;8.636;2023-11-21T00:52:57;6.57;;;2.80;;
76098;SDS011;64828;49.956;8.636;2023-11-21T00:53:13;5.75;;;2.80;;
76098;SDS011;64828;49.956;8.636;2023-11-21T00:53:29;6.53;;;2.73;;
76098;SDS011;64828;49.956;8.636;2023-11-21T00:53:44;7.90;;;2.78;;
76098;SDS011;64828;49.956;8.636;2023-11-21T00:54:00;7.33;;;2.77;;
76098;SDS011;64828;49.956;8.636;2023-11-21T00:54:16;6.10;;;2.50;;
76098;SDS011;64828;49.956;8.636;2023-11-21T00:54:34;5.72;;;2.40;;
76098;SDS011;64828;49.956;8.636;2023-11-21T00:54:50;5.78;;;2.38;;
76098;SDS011;64828;49.956;8.636;2023-11-21T00:55:06;5.65;;;2.40;;
76098;SDS011;64828;49.956;8.636;2023-11-21T00:55:23;4.85;;;2.42;;
76098;SDS011;64828;49.956;8.636;2023-11-21T00:55:41;4.70;;;2.35;;
76098;SDS011;64828;49.956;8.636;2023-11-21T00:55:57;5.93;;;2.40;;
76098;SDS011;64828;49.956;8.636;2023-11-21T00:56:12;6.15;;;2.40;;
76098;SDS011;64828;49.956;8.636;2023-11-21T00:56:29;6.15;;;2.65;;
76098;SDS011;64828;49.956;8.636;2023-11-21T00:56:45;5.50;;;2.65;;
76098;SDS011;64828;49.956;8.636;2023-11-21T00:57:02;4.30;;;2.40;;
76098;SDS011;64828;49.956;8.636;2023-11-21T00:57:18;5.53;;;2.58;;
76098;SDS011;64828;49.956;8.636;2023-11-21T00:57:34;5.60;;;2.50;;
76098;SDS011;64828;49.956;8.636;2023-11-21T00:57:50;4.63;;;2.25;;
76098;SDS011;64828;49.956;8.636;2023-11-21T00:58:06;5.60;;;2.20;;
76098;SDS011;64828;49.956;8.636;2023-11-21T00:58:21;5.72;;;2.30;;
76098;SDS011;64828;49.956;8.636;2023-11-21T00:58:39;5.07;;;2.33;;
76098;SDS011;64828;49.956;8.636;2023-11-21T00:58:58;6.20;;;2.60;;
76098;SDS011;64828;49.956;8.636;2023-11-21T00:59:14;6.57;;;2.53;;
76098;SDS011;64828;49.956;8.636;2023-11-21T00:59:29;6.80;;;2.47;;
76098;SDS011;64828;49.956;8.636;2023-11-21T00:59:45;5.40;;;2.42;;
76098;SDS011;64828;49.956;8.636;2023-11-21T01:00:01;5.90;;;2.40;;
76098;SDS011;64828;49.956;8.636;2023-11-21T01:00:21;5.35;;;2.22;;
76098;SDS011;64828;49.956;8.636;2023-11-21T01:00:38;4.85;;;2.28;;
76098;SDS011;64828;49.956;8.636;2023-11-21T01:00:57;6.03;;;2.60;;
76098;SDS011;64828;49.956;8.636;2023-11-21T01:01:12;6.80;;;2.60;;
76098;SDS011;64828;49.956;8.636;2023-11-21T01:01:28;7.63;;;2.50;;
76098;SDS011;64828;49.956;8.636;2023-11-21T01:01:44;6.10;;;2.40;;
76098;SDS011;64828;49.956;8.636;2023-11-21T01:02:00;4.80;;;2.53;;
76098;SDS011;64828;49.956;8.636;2023-11-21T01:02:16;4.68;;;2.25;;
76098;SDS011;64828;49.956;8.636;2023-11-21T01:02:32;5.53;;;2.20;;
76098;SDS011;64828;49.956;8.636;2023-11-21T01:02:47;6.30;;;2.35;;
76098;SDS011;64828;49.956;8.636;2023-11-21T01:03:03;6.77;;;2.30;;
76098;SDS011;64828;49.956;8.636;2023-11-21T01:03:19;6.68;;;2.25;;
76098;SDS011;64828;49.956;8.636;2023-11-21T01:03:34;6.03;;;2.35;;
76098;SDS011;64828;49.956;8.636;2023-11-21T01:03:50;4.85;;;2.30;;
76098;SDS011;64828;49.956;8.636;2023-11-21T01:04:06;5.23;;;2.47;;
76098;SDS011;64828;49.956;8.636;2023-11-21T01:04:22;6.07;;;2.50;;
76098;SDS011;64828;49.956;8.636;2023-11-21T01:04:37;5.57;;;2.40;;
76098;SDS011;64828;49.956;8.636;2023-11-21T01:04:53;5.27;;;2.57;;
76098;SDS011;64828;49.956;8.636;2023-11-21T01:05:08;4.85;;;2.30;;
76098;SDS011;64828;49.956;8.636;2023-11-21T01:05:24;3.73;;;2.10;;
76098;SDS011;64828;49.956;8.636;2023-11-21T01:05:40;5.75;;;2.33;;
76098;SDS011;64828;49.956;8.636;2023-11-21T01:05:55;6.30;;;2.20;;
76098;SDS011;64828;49.956;8.636;2023-11-21T01:06:11;4.60;;;2.27;;
76098;SDS011;64828;49.956;8.636;2023-11-21T01:06:27;5.47;;;2.53;;
76098;SDS011;64828;49.956;8.636;2023-11-21T01:06:42;5.57;;;2.50;;
76098;SDS011;64828;49.956;8.636;2023-11-21T01:06:58;4.45;;;2.50;;
76098;SDS011;64828;49.956;8.636;2023-11-21T01:07:13;5.45;;;2.55;;
76098;SDS011;64828;49.956;8.636;2023-11-21T01:07:29;6.03;;;2.60;;
76098;SDS011;64828;49.956;8.636;2023-11-21T01:07:45;6.03;;;2.50;;
76098;SDS011;64828;49.956;8.636;2023-11-21T01:08:00;6.43;;;2.40;;
76098;SDS011;64828;49.956;8.636;2023-11-21T01:08:16;4.90;;;2.30;;
76098;SDS011;64828;49.956;8.636;2023-11-21T01:08:31;3.90;;;2.27;;
76098;SDS011;64828;49.956;8.636;2023-11-21T01:08:47;4.05;;;2.35;;
76098;SDS011;64828;49.956;8.636;2023-11-21T01:09:03;5.03;;;2.58;;
76098;SDS011;64828;49.956;8.636;2023-11-21T01:09:23;5.60;;;2.47;;
76098;SDS011;64828;49.956;8.636;2023-11-21T01:09:39;5.57;;;2.33;;
76098;SDS011;64828;49.956;8.636;2023-11-21T01:09:54;6.60;;;2.50;;
76098;SDS011;64828;49.956;8.636;2023-11-21T01:10:11;6.85;;;2.63;;
76098;SDS011;64828;49.956;8.636;2023-11-21T01:10:27;4.80;;;2.38;;
76098;SDS011;64828;49.956;8.636;2023-11-21T01:10:42;5.50;;;2.43;;
76098;SDS011;64828;49.956;8.636;2023-11-21T01:10:58;7.32;;;2.70;;
76098;SDS011;64828;49.956;8.636;2023-11-21T01:11:14;6.80;;;2.85;;
76098;SDS011;64828;49.956;8.636;2023-11-21T01:11:29;5.30;;;2.73;;
76098;SDS011;64828;49.956;8.636;2023-11-21T01:11:45;4.78;;;2.55;;
76098;SDS011;64828;49.956;8.636;2023-11-21T01:12:01;4.90;;;2.55;;
76098;SDS011;64828;49.956;8.636;2023-11-21T01:12:17;5.43;;;2.63;;
76098;SDS011;64828;49.956;8.636;2023-11-21T01:12:34;5.40;;;2.67;;
76098;SDS011;64828;49.956;8.636;2023-11-21T01:12:52;5.75;;;2.65;;
76098;SDS011;64828;49.956;8.636;2023-11-21T01:13:08;5.80;;;2.67;;
76098;SDS011;64828;49.956;8.636;2023-11-21T01:13:24;5.80;;;2.70;;
76098;SDS011;64828;49.956;8.636;2023-11-21T01:13:43;6.10;;;2.55;;
76098;SDS011;64828;49.956;8.636;2023-11-21T01:13:59;6.18;;;2.50;;
76098;SDS011;64828;49.956;8.636;2023-11-21T01:14:15;6.95;;;2.58;;
76098;SDS011;64828;49.956;8.636;2023-11-21T01:14:32;5.30;;;2.45;;
76098;SDS011;64828;49.956;8.636;2023-11-21T01:14:48;4.95;;;2.53;;
76098;SDS011;64828;49.956;8.636;2023-11-21T01:15:06;4.70;;;2.60;;
76098;SDS011;64828;49.956;8.636;2023-11-21T01:15:22;5.22;;;2.75;;
76098;SDS011;64828;49.956;8.636;2023-11-21T01:15:38;5.70;;;3.10;;
76098;SDS011;64828;49.956;8.636;2023-11-21T01:15:54;4.83;;;2.93;;
76098;SDS011;64828;49.956;8.636;2023-11-21T01:16:10;5.47;;;2.78;;
76098;SDS011;64828;49.956;8.636;2023-11-21T01:16:26;5.63;;;2.80;;
76098;SDS011;64828;49.956;8.636;2023-11-21T01:16:42;5.53;;;2.65;;
76098;SDS011;64828;49.956;8.636;2023-11-21T01:16:58;6.35;;;2.80;;
76098;SDS011;64828;49.956;8.636;2023-11-21T01:17:14;6.67;;;3.20;;
76098;SDS011;64828;49.956;8.636;2023-11-21T01:17:29;6.25;;;3.03;;
76098;SDS011;64828;49.956;8.636;2023-11-21T01:17:45;6.28;;;2.85;;
76098;SDS011;64828;49.956;8.636;2023-11-21T01:18:02;5.33;;;2.83;;
76098;SDS011;64828;49.956;8.636;2023-11-21T01:18:18;4.25;;;2.95;;
76098;SDS011;64828;49.956;8.636;2023-11-21T01:18:37;5.47;;;2.90;;
76098;SDS011;64828;49.956;8.636;2023-11-21T01:18:52;5.95;;;2.80;;
76098;SDS011;64828;49.956;8.636;2023-11-21T01:19:08;4.88;;;2.78;;
76098;SDS011;64828;49.956;8.636;2023-11-21T01:19:24;5.00;;;2.70;;
76098;SDS011;64828;49.956;8.636;2023-11-21T01:19:39;5.55;;;3.00;;
76098;SDS011;64828;49.956;8.636;2023-11-21T01:19:55;6.30;;;3.08;;
76098;SDS011;64828;49.956;8.636;2023-11-21T01:20:11;7.30;;;2.90;;
76098;SDS011;64828;49.956;8.636;2023-11-21T01:20:27;6.78;;;2.72;;
76098;SDS011;64828;49.956;8.636;2023-11-21T01:20:43;5.90;;;2.87;;
76098;SDS011;64828;49.956;8.636;2023-11-21T01:20:59;5.53;;;3.00;;
76098;SDS011;64828;49.956;8.636;2023-11-21T01:21:15;5.93;;;2.90;;
76098;SDS011;64828;49.956;8.636;2023-11-21T01:21:31;5.97;;;2.80;;
76098;SDS011;64828;49.956;8.636;2023-11-21T01:21:47;5.47;;;2.85;;
76098;SDS011;64828;49.956;8.636;2023-11-21T01:22:02;5.10;;;2.92;;
76098;SDS011;64828;49.956;8.636;2023-11-21T01:22:18;4.78;;;2.83;;
76098;SDS011;64828;49.956;8.636;2023-11-21T01:22:40;7.05;;;2.75;;
76098;SDS011;64828;49.956;8.636;2023-11-21T01:22:56;7.10;;;2.80;;
76098;SDS011;64828;49.956;8.636;2023-11-21T01:23:12;6.57;;;2.80;;
76098;SDS011;64828;49.956;8.636;2023-11-21T01:23:28;6.35;;;3.13;;
76098;SDS011;64828;49.956;8.636;2023-11-21T01:23:45;5.43;;;3.20;;
76098;SDS011;64828;49.956;8.636;2023-11-21T01:24:00;6.15;;;3.10;;
76098;SDS011;64828;49.956;8.636;2023-11-21T01:24:16;6.40;;;3.07;;
76098;SDS011;64828;49.956;8.636;2023-11-21T01:24:31;7.05;;;3.17;;
76098;SDS011;64828;49.956;8.636;2023-11-21T01:24:47;6.03;;;3.10;;
76098;SDS011;64828;49.956;8.636;2023-11-21T01:25:03;6.25;;;2.83;;
76098;SDS011;64828;49.956;8.636;2023-11-21T01:25:22;6.60;;;2.83;;
76098;SDS011;64828;49.956;8.636;2023-11-21T01:25:38;5.97;;;3.08;;
76098;SDS011;64828;49.956;8.636;2023-11-21T01:25:55;6.57;;;3.42;;
76098;SDS011;64828;49.956;8.636;2023-11-21T01:26:11;6.43;;;3.25;;
76098;SDS011;64828;49.956;8.636;2023-11-21T01:26:27;5.57;;;3.10;;
76098;SDS011;64828;49.956;8.636;2023-11-21T01:26:43;5.57;;;3.03;;
76098;SDS011;64828;49.956;8.636;2023-11-21T01:27:00;6.63;;;3.20;;
76098;SDS011;64828;49.956;8.636;2023-11-21T01:27:16;6.68;;;3.50;;
76098;SDS011;64828;49.956;8.636;2023-11-21T01:27:32;5.90;;;3.53;;
76098;SDS011;64828;49.956;8.636;2023-11-21T01:27:50;6.50;;;3.40;;
76098;SDS011;64828;49.956;8.636;2023-11-21T01:28:06;6.13;;;3.10;;
76098;SDS011;64828;49.956;8.636;2023-11-21T01:28:22;6.63;;;3.03;;
76098;SDS011;64828;49.956;8.636;2023-11-21T01:28:37;6.28;;;3.03;;
76098;SDS011;64828;49.956;8.636;2023-11-21T01:28:53;5.37;;;2.93;;
76098;SDS011;64828;49.956;8.636;2023-11-21T01:29:09;6.38;;;3.13;;
76098;SDS011;64828;49.956;8.636;2023-11-21T01:29:25;6.18;;;3.22;;
76098;SDS011;64828;49.956;8.636;2023-11-21T01:29:40;6.40;;;3.20;;
76098;SDS011;64828;49.956;8.636;2023-11-21T01:29:56;7.17;;;3.20;;
76098;SDS011;64828;49.956;8.636;2023-11-21T01:30:12;6.03;;;3.00;;
76098;SDS011;64828;49.956;8.636;2023-11-21T01:30:28;5.32;;;3.03;;
76098;SDS011;64828;49.956;8.636;2023-11-21T01:30:43;6.87;;;3.30;;
76098;SDS011;64828;49.956;8.636;2023-11-21T01:30:59;6.90;;;3.20;;
76098;SDS011;64828;49.956;8.636;2023-11-21T01:31:15;6.07;;;3.10;;
76098;SDS011;64828;49.956;8.636;2023-11-21T01:31:30;6.82;;;3.30;;
76098;SDS011;64828;49.956;8.636;2023-11-21T01:31:46;6.60;;;3.30;;
76098;SDS011;64828;49.956;8.636;2023-11-21T01:32:02;6.30;;;3.45;;
76098;SDS011;64828;49.956;8.636;2023-11-21T01:32:18;6.82;;;3.50;;
76098;SDS011;64828;49.956;8.636;2023-11-21T01:32:34;6.75;;;3.20;;
76098;SDS011;64828;49.956;8.636;2023-11-21T01:32:49;6.60;;;3.22;;
76098;SDS011;64828;49.956;8.636;2023-11-21T01:33:05;7.10;;;3.50;;
76098;SDS011;64828;49.956;8.636;2023-11-21T01:33:21;5.85;;;3.17;;
76098;SDS011;64828;49.956;8.636;2023-11-21T01:33:39;6.20;;;3.10;;
76098;SDS011;64828;49.956;8.636;2023-11-21T01:33:55;6.90;;;3.28;;
76098;SDS011;64828;49.956;8.636;2023-11-21T01:34:11;6.65;;;3.40;;
76098;SDS011;64828;49.956;8.636;2023-11-21T01:34:27;6.77;;;3.20;;
76098;SDS011;64828;49.956;8.636;2023-11-21T01:34:43;7.63;;;3.20;;
76098;SDS011;64828;49.956;8.636;2023-11-21T01:35:01;6.37;;;3.33;;
76098;SDS011;64828;49.956;8.636;2023-11-21T01:35:17;5.55;;;3.15;;
76098;SDS011;64828;49.956;8.636;2023-11-21T01:35:33;6.63;;;3.00;;
76098;SDS011;64828;49.956;8.636;2023-11-21T01:35:49;6.45;;;3.25;;
76098;SDS011;64828;49.956;8.636;2023-11-21T01:36:05;6.10;;;3.28;;
76098;SDS011;64828;49.956;8.636;2023-11-21T01:36:21;5.55;;;3.00;;
76098;SDS011;64828;49.956;8.636;2023-11-21T01:36:37;6.05;;;3.20;;
76098;SDS011;64828;49.956;8.636;2023-11-21T01:36:52;6.03;;;3.53;;
76098;SDS011;64828;49.956;8.636;2023-11-21T01:37:08;5.45;;;3.40;;